Time;durP1;ratioP1;P1;durP2;ratioP2;P2;SDS_P1;SDS_P2;PMS_P1;PMS_P2;Temp;Humidity;BMP_temperature;BMP_pressure;BME280_temperature;BME280_humidity;BME280_pressure;Samples;Min_cycle;Max_cycle;Signal;HPM_P1;HPM_P2
2022/01/18 00:01:53;;;;;;;44.07;18.27;;;1.70;99.90;;;;;;5093400;28;20180;-74
2022/01/18 00:04:20;;;;;;;39.50;16.70;;;1.60;99.90;;;;;;5094227;28;20175;-74
2022/01/18 00:06:50;;;;;;;43.53;18.37;;;1.60;99.90;;;;;;5094025;28;20172;-74
2022/01/18 00:09:20;;;;;;;37.27;16.17;;;1.60;99.90;;;;;;5093979;28;20203;-74
2022/01/18 00:11:55;;;;;;;47.27;19.03;;;1.50;99.90;;;;;;5093856;28;20179;-74
2022/01/18 00:14:26;;;;;;;44.30;19.40;;;1.50;99.90;;;;;;5108681;28;20174;-74
2022/01/18 00:17:04;;;;;;;48.63;19.97;;;1.40;99.90;;;;;;5114316;28;20176;-74
2022/01/18 00:19:33;;;;;;;45.13;19.13;;;1.40;99.90;;;;;;5114300;28;20173;-74
2022/01/18 00:22:13;;;;;;;39.90;17.90;;;1.30;99.90;;;;;;5114187;28;20158;-74
2022/01/18 00:24:40;;;;;;;47.60;19.67;;;1.30;99.90;;;;;;5114166;28;20178;-76
2022/01/18 00:27:10;;;;;;;49.80;19.67;;;1.20;99.90;;;;;;5096204;28;20215;-75
2022/01/18 00:29:41;;;;;;;46.67;19.83;;;1.20;99.90;;;;;;5093381;28;20199;-76
2022/01/18 00:34:39;;;;;;;43.10;18.77;;;1.20;99.90;;;;;;5093614;28;20634;-76
2022/01/18 00:39:36;;;;;;;46.07;17.80;;;1.10;99.90;;;;;;5093464;28;20538;-76
2022/01/18 00:42:03;;;;;;;57.07;20.53;;;1.10;99.90;;;;;;5093649;28;20168;-75
2022/01/18 00:44:28;;;;;;;50.63;21.17;;;1.10;99.90;;;;;;5093441;28;20172;-75
2022/01/18 00:46:54;;;;;;;55.87;21.27;;;1.10;99.90;;;;;;5093051;28;20225;-76
2022/01/18 00:49:20;;;;;;;53.17;21.73;;;1.10;99.90;;;;;;5093009;28;20303;-75
2022/01/18 00:51:53;;;;;;;57.97;23.20;;;1.10;99.90;;;;;;5106855;28;20642;-77
2022/01/18 00:54:23;;;;;;;42.57;21.27;;;1.10;99.90;;;;;;5093186;28;20207;-75
2022/01/18 00:56:52;;;;;;;49.77;21.33;;;1.10;99.90;;;;;;5100283;28;20211;-75
2022/01/18 00:59:19;;;;;;;57.77;21.53;;;1.20;99.90;;;;;;5113224;28;20183;-75
2022/01/18 01:01:45;;;;;;;43.27;20.23;;;1.20;99.90;;;;;;5113468;28;20232;-75
2022/01/18 01:04:11;;;;;;;37.17;17.30;;;1.20;99.90;;;;;;5094099;28;20584;-76
2022/01/18 01:06:37;;;;;;;42.23;17.90;;;1.20;99.90;;;;;;5092875;28;20190;-75
2022/01/18 01:09:05;;;;;;;42.97;17.83;;;1.10;99.90;;;;;;5092614;28;20208;-76
2022/01/18 01:11:36;;;;;;;37.90;16.73;;;1.10;99.90;;;;;;5092322;28;20191;-75
2022/01/18 01:14:03;;;;;;;40.67;15.83;;;1.10;99.90;;;;;;5091385;28;20221;-75
2022/01/18 01:43:30;;;;;;;41.90;19.13;;;0.80;99.90;;;;;;5092942;28;20175;-79
2022/01/18 01:45:58;;;;;;;40.77;18.37;;;0.80;99.90;;;;;;5092481;28;20724;-79
2022/01/18 01:48:26;;;;;;;34.90;17.10;;;0.70;99.90;;;;;;5108670;28;20175;-78
2022/01/18 01:51:02;;;;;;;40.43;19.17;;;0.60;99.90;;;;;;5098347;28;20241;-79
2022/01/18 01:53:28;;;;;;;48.30;20.80;;;0.60;99.90;;;;;;5122436;28;20250;-79
2022/01/18 01:55:54;;;;;;;57.63;22.23;;;0.60;99.90;;;;;;5112122;28;20175;-78
2022/01/18 01:58:25;;;;;;;49.70;21.50;;;0.60;99.90;;;;;;5095540;28;20234;-77
2022/01/18 02:00:57;;;;;;;46.43;21.67;;;0.70;99.90;;;;;;5093758;28;20168;-78
2022/01/18 02:03:24;;;;;;;50.30;22.23;;;0.70;99.90;;;;;;5091101;28;20176;-78
2022/01/18 02:05:51;;;;;;;53.07;22.43;;;0.70;99.90;;;;;;5091860;28;20198;-78
2022/01/18 02:08:17;;;;;;;51.60;23.87;;;0.60;99.90;;;;;;5091901;28;20168;-77
2022/01/18 02:10:44;;;;;;;56.17;22.47;;;0.70;99.90;;;;;;5091737;28;20295;-78
2022/01/18 02:13:13;;;;;;;53.30;23.00;;;0.70;99.90;;;;;;5091690;28;20167;-77
2022/01/18 02:16:08;;;;;;;59.03;24.57;;;0.70;99.90;;;;;;5091562;28;20579;-78
2022/01/18 02:21:46;;;;;;;47.73;22.10;;;0.60;99.90;;;;;;5105616;28;20283;-77
2022/01/18 02:24:07;;;;;;;51.03;22.53;;;0.50;99.90;;;;;;5111064;28;20232;-77
2022/01/18 02:26:33;;;;;;;59.93;22.97;;;0.50;99.90;;;;;;5108480;28;20180;-77
2022/01/18 02:29:00;;;;;;;53.57;24.70;;;0.50;99.90;;;;;;5091159;28;20203;-78
2022/01/18 02:31:26;;;;;;;73.27;28.13;;;0.40;99.90;;;;;;5091646;28;20180;-78
2022/01/18 02:33:52;;;;;;;67.80;27.83;;;0.40;99.90;;;;;;5091470;28;20176;-78
2022/01/18 02:36:18;;;;;;;60.03;28.00;;;0.40;99.90;;;;;;5091112;28;20258;-78
2022/01/18 02:38:43;;;;;;;71.53;29.13;;;0.50;99.90;;;;;;5091214;28;20243;-77
2022/01/18 02:41:09;;;;;;;67.20;28.03;;;0.50;99.90;;;;;;5091205;28;20572;-78
2022/01/18 02:43:48;;;;;;;75.20;28.37;;;0.60;99.90;;;;;;5092898;28;20634;-76
2022/01/18 02:46:14;;;;;;;61.67;27.57;;;0.60;99.90;;;;;;5111176;28;20230;-74
2022/01/18 02:48:39;;;;;;;63.73;27.33;;;0.60;99.90;;;;;;5091682;28;20183;-74
2022/01/18 02:51:05;;;;;;;63.20;25.60;;;0.60;99.90;;;;;;5091001;28;20168;-72
2022/01/18 02:53:31;;;;;;;50.43;22.47;;;0.60;99.90;;;;;;5091055;28;20163;-74
2022/01/18 02:55:58;;;;;;;52.23;23.47;;;0.70;99.90;;;;;;5091527;28;20168;-75
2022/01/18 02:58:29;;;;;;;56.97;23.67;;;0.60;99.90;;;;;;5091199;28;20172;-75
2022/01/18 03:03:35;;;;;;;56.23;24.10;;;0.80;99.90;;;;;;5090967;28;20163;-77
2022/01/18 03:06:04;;;;;;;57.57;24.13;;;0.80;99.90;;;;;;5090759;28;20255;-75
2022/01/18 03:08:30;;;;;;;57.63;23.73;;;0.80;99.90;;;;;;5090336;28;21038;-75
2022/01/18 03:10:57;;;;;;;54.53;23.70;;;0.90;99.90;;;;;;5090609;28;20171;-75
2022/01/18 03:13:24;;;;;;;53.93;23.27;;;0.90;99.90;;;;;;5090846;28;20172;-76
2022/01/18 03:15:50;;;;;;;48.37;21.07;;;0.80;99.90;;;;;;5090716;28;20627;-75
2022/01/18 03:18:16;;;;;;;49.60;22.53;;;0.80;99.90;;;;;;5090943;28;20174;-75
2022/01/18 03:20:41;;;;;;;47.30;22.20;;;0.90;99.90;;;;;;5090403;28;20168;-76
2022/01/18 03:23:16;;;;;;;50.77;21.53;;;0.80;99.90;;;;;;5091781;28;20638;-75
2022/01/18 03:26:00;;;;;;;52.43;21.90;;;0.80;99.90;;;;;;5090741;28;20186;-74
2022/01/18 03:28:28;;;;;;;50.43;21.30;;;0.90;99.90;;;;;;5090748;28;20206;-75
2022/01/18 03:30:57;;;;;;;51.87;21.23;;;0.90;99.90;;;;;;5090845;28;20172;-75
2022/01/18 03:33:25;;;;;;;46.00;20.43;;;0.90;99.90;;;;;;5090691;28;20176;-75
2022/01/18 03:35:53;;;;;;;45.80;21.03;;;1.00;99.90;;;;;;5093648;28;20634;-75
2022/01/18 03:38:21;;;;;;;46.60;20.57;;;1.00;99.90;;;;;;5098327;28;20190;-73
2022/01/18 03:40:47;;;;;;;50.27;21.07;;;1.00;99.90;;;;;;5094319;28;20199;-74
2022/01/18 03:43:14;;;;;;;51.47;21.30;;;1.10;99.90;;;;;;5094390;28;20171;-74
2022/01/18 03:45:45;;;;;;;48.47;21.23;;;1.10;99.90;;;;;;5094143;28;20234;-74
2022/01/18 03:48:29;;;;;;;48.60;21.33;;;1.10;99.90;;;;;;5094455;28;20165;-73
2022/01/18 03:50:56;;;;;;;55.07;22.40;;;1.10;99.90;;;;;;5094221;28;20191;-73
2022/01/18 03:53:22;;;;;;;48.80;20.47;;;1.10;99.90;;;;;;5094283;28;20172;-73
2022/01/18 03:55:48;;;;;;;55.17;21.10;;;1.20;99.90;;;;;;5094200;28;20203;-73
2022/01/18 03:58:14;;;;;;;49.97;20.73;;;1.20;99.90;;;;;;5094112;28;20171;-73
2022/01/18 04:00:40;;;;;;;45.63;20.23;;;1.20;99.90;;;;;;5096800;28;20588;-73
2022/01/18 04:03:07;;;;;;;52.43;20.63;;;1.20;99.90;;;;;;5113861;28;20542;-74
2022/01/18 04:05:32;;;;;;;48.03;20.60;;;1.10;99.90;;;;;;5113242;28;20175;-73
2022/01/18 04:07:58;;;;;;;52.57;21.17;;;1.10;99.90;;;;;;5114495;28;20920;-73
2022/01/18 04:10:24;;;;;;;49.60;21.10;;;1.10;99.90;;;;;;5112630;28;20218;-74
2022/01/18 04:12:50;;;;;;;53.20;20.97;;;1.00;99.90;;;;;;5114427;28;20196;-75
2022/01/18 04:15:17;;;;;;;54.70;20.60;;;0.90;99.90;;;;;;5114537;28;20207;-78
2022/01/18 04:26:04;;;;;;;45.87;21.60;;;0.80;99.90;;;;;;5017643;28;20208;-78
2022/01/18 04:30:56;;;;;;;54.03;23.17;;;0.80;99.90;;;;;;5093828;28;20183;-75
2022/01/18 04:33:22;;;;;;;54.10;22.30;;;0.80;99.90;;;;;;5093500;28;20172;-76
2022/01/18 04:35:49;;;;;;;64.97;23.67;;;0.80;99.90;;;;;;5093511;28;20178;-75
2022/01/18 04:38:14;;;;;;;64.73;23.57;;;0.80;99.90;;;;;;5093555;28;20160;-75
2022/01/18 04:40:44;;;;;;;58.77;23.17;;;0.80;99.90;;;;;;5094161;28;20483;-76
2022/01/18 04:48:40;;;;;;;50.53;21.90;;;0.70;99.90;;;;;;5093964;28;20178;-75
2022/01/18 04:51:11;;;;;;;54.10;22.73;;;0.80;99.90;;;;;;5093276;28;20183;-75
2022/01/18 04:53:40;;;;;;;55.50;23.40;;;0.80;99.90;;;;;;5093450;28;20176;-75
2022/01/18 04:56:11;;;;;;;58.00;21.97;;;0.80;99.90;;;;;;5093403;28;20167;-75
2022/01/18 04:58:37;;;;;;;52.37;21.57;;;0.80;99.90;;;;;;5093132;28;20187;-76
2022/01/18 05:01:05;;;;;;;49.03;21.70;;;0.80;99.90;;;;;;5093066;28;20180;-75
2022/01/18 05:03:31;;;;;;;59.93;22.73;;;0.80;99.90;;;;;;5102765;28;20207;-75
2022/01/18 05:06:00;;;;;;;49.77;20.60;;;0.80;99.90;;;;;;5093211;28;20716;-77
2022/01/18 05:08:26;;;;;;;50.20;20.83;;;0.80;99.90;;;;;;5092623;28;20227;-74
2022/01/18 05:10:57;;;;;;;49.60;20.93;;;0.80;99.90;;;;;;5092317;28;20215;-74
2022/01/18 05:22:55;;;;;;;49.70;21.77;;;0.70;99.90;;;;;;5105812;28;20193;-74
2022/01/18 05:24:15;;;;;;;51.00;22.47;;;0.70;99.90;;;;;;5106862;28;20188;-74
2022/01/18 05:26:41;;;;;;;45.97;20.70;;;0.70;99.90;;;;;;5092485;28;20243;-75
2022/01/18 05:29:07;;;;;;;45.87;20.43;;;0.60;99.90;;;;;;5092227;28;20207;-74
2022/01/18 05:31:33;;;;;;;44.17;19.40;;;0.60;99.90;;;;;;5092431;28;20229;-75
2022/01/18 05:33:58;;;;;;;55.03;21.90;;;0.60;99.90;;;;;;5092453;28;20172;-74
2022/01/18 05:36:24;;;;;;;47.27;22.07;;;0.70;99.90;;;;;;5092422;28;20191;-74
2022/01/18 05:38:50;;;;;;;48.73;21.87;;;0.60;99.90;;;;;;5092346;28;20254;-71
2022/01/18 05:41:16;;;;;;;50.07;21.67;;;0.70;99.90;;;;;;5092225;28;20277;-71
2022/01/18 05:43:42;;;;;;;56.50;22.57;;;0.70;99.90;;;;;;5092061;28;20178;-72
2022/01/18 05:46:08;;;;;;;54.93;21.27;;;0.80;99.90;;;;;;5091843;28;20314;-73
2022/01/18 05:48:34;;;;;;;43.93;20.30;;;0.80;99.90;;;;;;5091723;28;20267;-73
2022/01/18 05:51:00;;;;;;;46.70;20.37;;;0.80;99.90;;;;;;5091903;28;20175;-73
2022/01/18 05:53:27;;;;;;;44.53;21.00;;;0.90;99.90;;;;;;5092012;28;20168;-70
2022/01/18 05:55:53;;;;;;;50.97;21.97;;;0.90;99.90;;;;;;5092088;28;20173;-63
2022/01/18 05:58:19;;;;;;;52.37;21.43;;;0.90;99.90;;;;;;5090798;28;20183;-72
2022/01/18 06:00:52;;;;;;;50.27;20.87;;;1.00;99.90;;;;;;5091879;28;20176;-72
2022/01/18 06:03:30;;;;;;;52.50;20.87;;;1.00;99.90;;;;;;5091974;28;20255;-71
2022/01/18 06:08:42;;;;;;;48.07;21.20;;;1.00;99.90;;;;;;5091856;28;20660;-76
2022/01/18 06:11:08;;;;;;;53.73;22.97;;;1.00;99.90;;;;;;5091907;28;20210;-75
2022/01/18 06:13:35;;;;;;;52.83;21.33;;;1.00;99.90;;;;;;5091761;28;20179;-75
2022/01/18 06:16:01;;;;;;;53.90;21.77;;;1.10;99.90;;;;;;5091659;28;20650;-75
2022/01/18 06:18:26;;;;;;;50.67;21.67;;;1.10;99.90;;;;;;5091495;28;20176;-74
2022/01/18 06:20:53;;;;;;;57.40;22.47;;;1.10;99.90;;;;;;5091771;28;20600;-76
2022/01/18 06:23:19;;;;;;;51.77;20.47;;;1.10;99.90;;;;;;5091676;28;20183;-75
2022/01/18 06:25:45;;;;;;;46.73;20.57;;;1.10;99.90;;;;;;5091578;28;20298;-75
2022/01/18 06:28:11;;;;;;;54.60;21.63;;;1.10;99.90;;;;;;5091501;28;20167;-74
2022/01/18 06:30:36;;;;;;;46.80;20.77;;;1.10;99.90;;;;;;5091295;28;20274;-74
2022/01/18 06:33:03;;;;;;;52.83;23.00;;;1.10;99.90;;;;;;5091532;28;20174;-75
2022/01/18 06:35:28;;;;;;;48.47;23.33;;;1.10;99.90;;;;;;5090159;28;20176;-74
2022/01/18 06:37:54;;;;;;;51.80;22.17;;;1.10;99.90;;;;;;5091391;28;20646;-73
2022/01/18 06:40:20;;;;;;;58.93;22.67;;;1.10;99.90;;;;;;5091274;28;20222;-74
2022/01/18 06:42:46;;;;;;;53.83;22.27;;;1.00;99.90;;;;;;5091032;28;20534;-73
2022/01/18 06:45:12;;;;;;;47.40;22.87;;;1.00;99.90;;;;;;5090005;28;20196;-73
2022/01/18 06:47:39;;;;;;;55.40;22.37;;;1.00;99.90;;;;;;5089816;28;20650;-74
2022/01/18 06:53:20;;;;;;;46.73;20.30;;;0.90;99.90;;;;;;2833108;29;20240;-62
2022/01/18 06:55:51;;;;;;;44.17;21.20;;;0.90;99.90;;;;;;4948747;28;20331;-62
2022/01/18 06:58:17;;;;;;;49.97;21.23;;;0.90;99.90;;;;;;4967055;28;20176;-62
2022/01/18 07:00:43;;;;;;;54.00;23.17;;;0.90;99.90;;;;;;4952027;28;20169;-62
2022/01/18 07:03:09;;;;;;;54.37;20.10;;;0.90;99.90;;;;;;4952200;29;20709;-61
2022/01/18 07:05:36;;;;;;;52.37;21.33;;;0.90;99.90;;;;;;4952310;29;20200;-63
2022/01/18 07:08:01;;;;;;;51.00;21.40;;;0.90;99.90;;;;;;4952231;28;20169;-62
2022/01/18 07:10:31;;;;;;;46.80;19.57;;;1.00;99.90;;;;;;4954280;28;20357;-61
2022/01/18 07:12:58;;;;;;;54.33;20.87;;;1.00;99.90;;;;;;4955999;29;20185;-59
2022/01/18 07:15:24;;;;;;;52.20;20.10;;;1.00;99.90;;;;;;4956333;29;20211;-59
2022/01/18 07:17:49;;;;;;;47.23;20.03;;;-0.30;99.90;;;;;;4955970;29;20243;-59
2022/01/18 07:20:15;;;;;;;57.60;20.40;;;1.00;99.90;;;;;;4955951;28;20207;-58
2022/01/18 07:22:42;;;;;;;60.77;22.30;;;1.00;99.90;;;;;;4955952;29;20528;-58
2022/01/18 07:25:13;;;;;;;50.57;21.63;;;1.00;99.90;;;;;;4955880;29;20177;-58
2022/01/18 07:27:39;;;;;;;50.20;20.30;;;0.90;99.90;;;;;;4955689;29;20179;-58
2022/01/18 07:30:05;;;;;;;47.77;19.97;;;0.90;99.90;;;;;;4955527;29;20216;-59
2022/01/18 07:32:31;;;;;;;46.97;20.10;;;0.90;99.90;;;;;;4936599;29;20191;-59
2022/01/18 07:34:57;;;;;;;48.30;20.30;;;0.90;99.90;;;;;;4937683;29;20185;-65
2022/01/18 07:37:23;;;;;;;48.37;20.10;;;0.90;99.90;;;;;;4955790;29;20312;-64
2022/01/18 07:39:51;;;;;;;50.20;20.33;;;0.90;99.90;;;;;;4955381;28;20267;-64
2022/01/18 07:42:18;;;;;;;48.47;19.33;;;0.90;99.90;;;;;;4936309;29;20173;-63
2022/01/18 07:44:44;;;;;;;45.57;19.23;;;1.00;99.90;;;;;;4943032;29;20181;-63
2022/01/18 07:47:10;;;;;;;52.27;20.00;;;1.10;99.90;;;;;;4955515;29;20183;-63
2022/01/18 07:49:36;;;;;;;42.03;18.50;;;1.20;99.90;;;;;;4955496;29;20302;-63
2022/01/18 07:52:02;;;;;;;49.20;19.80;;;1.30;99.90;;;;;;4955453;29;20635;-63
2022/01/18 07:54:27;;;;;;;49.10;20.07;;;1.40;99.90;;;;;;4955081;29;20264;-64
2022/01/18 07:56:53;;;;;;;56.27;21.87;;;1.50;99.90;;;;;;4954991;29;20176;-64
2022/01/18 07:59:20;;;;;;;46.80;20.57;;;1.60;99.90;;;;;;4955286;29;20176;-64
2022/01/18 08:01:47;;;;;;;44.37;19.60;;;1.70;99.90;;;;;;4954450;28;20631;-65
2022/01/18 08:04:12;;;;;;;62.27;21.40;;;1.80;99.90;;;;;;4937855;28;20648;-65
2022/01/18 08:06:38;;;;;;;46.80;19.17;;;1.80;99.90;;;;;;4955179;29;20176;-65
2022/01/18 08:09:04;;;;;;;48.20;19.67;;;1.90;99.90;;;;;;4954994;29;20203;-60
2022/01/18 08:11:30;;;;;;;47.97;20.13;;;1.90;99.90;;;;;;4955153;29;20189;-60
2022/01/18 08:13:57;;;;;;;49.80;20.83;;;1.90;99.90;;;;;;4955218;29;20263;-60
2022/01/18 08:19:00;;;;;;;46.53;19.80;;;2.00;99.90;;;;;;4955197;29;20185;-61
2022/01/18 08:21:26;;;;;;;49.83;20.63;;;2.00;99.90;;;;;;4953670;28;20212;-60
2022/01/18 08:23:52;;;;;;;41.43;19.10;;;2.10;99.90;;;;;;4953715;28;20188;-59
2022/01/18 08:26:18;;;;;;;46.97;18.57;;;2.10;99.90;;;;;;4954707;29;20176;-59
2022/01/18 08:28:45;;;;;;;47.23;19.40;;;2.20;99.90;;;;;;4954740;28;20551;-60
2022/01/18 08:31:11;;;;;;;49.80;19.23;;;2.20;99.90;;;;;;4952995;28;20180;-59
2022/01/18 08:33:37;;;;;;;41.37;18.87;;;2.10;99.90;;;;;;4954581;29;20538;-60
2022/01/18 08:36:06;;;;;;;43.37;19.63;;;2.10;99.90;;;;;;4937249;29;20177;-60
2022/01/18 08:38:32;;;;;;;44.53;19.47;;;2.20;99.90;;;;;;4954157;28;20188;-61
2022/01/18 08:40:59;;;;;;;45.63;19.67;;;2.20;99.90;;;;;;4954512;29;20659;-61
2022/01/18 08:43:26;;;;;;;38.80;18.43;;;2.30;99.90;;;;;;4953973;28;20177;-61
2022/01/18 08:45:52;;;;;;;46.97;20.87;;;2.40;99.90;;;;;;4953920;29;20180;-61
2022/01/18 08:48:18;;;;;;;50.97;20.53;;;2.40;99.90;;;;;;4951247;28;20188;-60
2022/01/18 08:50:44;;;;;;;47.10;20.07;;;2.50;99.90;;;;;;4935436;29;20717;-59
2022/01/18 08:53:10;;;;;;;46.43;18.53;;;2.60;99.90;;;;;;4940763;28;20267;-59
2022/01/18 08:55:36;;;;;;;51.27;19.83;;;2.70;99.90;;;;;;4952503;28;20298;-59
2022/01/18 08:58:03;;;;;;;46.23;19.63;;;2.70;99.90;;;;;;4954078;29;20177;-59
2022/01/18 09:00:30;;;;;;;48.13;20.67;;;2.80;99.90;;;;;;4954111;28;20184;-58
2022/01/18 09:02:56;;;;;;;45.37;18.93;;;2.90;99.90;;;;;;4954033;28;20214;-58
2022/01/18 09:05:24;;;;;;;49.57;18.93;;;2.90;99.90;;;;;;4953846;28;20177;-61
2022/01/18 09:07:51;;;;;;;35.83;17.37;;;3.00;99.90;;;;;;4953903;28;20204;-61
2022/01/18 09:10:18;;;;;;;39.70;18.17;;;3.00;99.90;;;;;;4947439;28;20271;-69
2022/01/18 09:12:43;;;;;;;50.33;20.90;;;3.00;99.90;;;;;;4954094;28;20172;-63
2022/01/18 09:15:12;;;;;;;40.70;19.33;;;3.00;99.90;;;;;;4953275;28;20548;-62
2022/01/18 09:17:39;;;;;;;49.93;19.67;;;2.90;99.90;;;;;;4953942;29;20191;-62
2022/01/18 09:20:07;;;;;;;47.23;20.67;;;2.90;99.90;;;;;;4936667;29;20648;-62
2022/01/18 09:22:35;;;;;;;46.07;21.83;;;2.90;99.90;;;;;;4953862;29;20196;-62
2022/01/18 09:25:05;;;;;;;50.43;21.80;;;3.00;99.90;;;;;;4953197;28;20192;-62
2022/01/18 09:27:32;;;;;;;48.67;20.27;;;3.20;99.90;;;;;;4952213;28;20368;-62
2022/01/18 09:29:57;;;;;;;48.97;20.03;;;3.20;99.90;;;;;;4952305;29;20215;-62
2022/01/18 09:32:23;;;;;;;47.27;21.03;;;3.30;99.90;;;;;;4952935;28;20181;-62
2022/01/18 09:34:50;;;;;;;43.80;20.23;;;3.50;99.90;;;;;;4951541;28;20542;-62
2022/01/18 09:37:16;;;;;;;49.37;19.23;;;3.60;99.90;;;;;;4949600;28;20187;-62
2022/01/18 09:39:41;;;;;;;43.53;18.93;;;3.60;99.90;;;;;;4953485;29;20180;-62
2022/01/18 09:42:11;;;;;;;46.57;20.50;;;3.70;99.90;;;;;;4952956;28;20619;-62
2022/01/18 09:44:37;;;;;;;50.40;20.33;;;3.80;99.90;;;;;;4952934;29;20177;-62
2022/01/18 09:47:23;;;;;;;50.50;21.27;;;3.80;99.90;;;;;;4953092;29;20240;-62
2022/01/18 09:49:48;;;;;;;42.90;20.10;;;3.90;99.90;;;;;;4952771;29;20347;-61
2022/01/18 09:52:14;;;;;;;39.87;19.53;;;3.90;99.90;;;;;;4953154;29;20210;-61
2022/01/18 09:54:42;;;;;;;56.03;20.73;;;3.90;99.90;;;;;;4982477;28;20234;-61
2022/01/18 09:57:08;;;;;;;47.80;19.83;;;4.00;99.90;;;;;;4952947;28;20169;-62
2022/01/18 09:59:34;;;;;;;47.13;18.97;;;4.10;99.90;;;;;;4950282;28;20518;-62
2022/01/18 10:02:01;;;;;;;42.13;19.00;;;4.10;99.90;;;;;;4952925;28;20272;-63
2022/01/18 10:04:31;;;;;;;43.87;19.43;;;4.10;99.90;;;;;;4952985;29;20165;-62
2022/01/18 10:06:58;;;;;;;43.13;17.73;;;4.10;99.90;;;;;;4953150;29;20203;-62
2022/01/18 10:09:26;;;;;;;44.77;18.73;;;4.30;99.90;;;;;;4952889;29;20212;-63
2022/01/18 10:12:13;;;;;;;57.50;22.77;;;4.30;99.90;;;;;;4951972;29;20436;-63
2022/01/18 10:14:51;;;;;;;40.90;19.50;;;4.40;99.90;;;;;;4948646;28;20201;-62
2022/01/18 10:17:36;;;;;;;51.37;18.43;;;4.50;99.90;;;;;;4951347;29;20682;-63
2022/01/18 10:20:18;;;;;;;43.90;18.70;;;4.70;99.90;;;;;;4941643;29;20787;-62
2022/01/18 10:22:49;;;;;;;50.00;18.03;;;4.70;99.90;;;;;;4951574;29;20229;-61
2022/01/18 10:25:20;;;;;;;52.33;18.07;;;4.80;99.90;;;;;;4952557;29;20562;-61
2022/01/18 10:27:49;;;;;;;51.67;18.97;;;4.90;99.90;;;;;;4952514;29;20271;-60
2022/01/18 10:30:25;;;;;;;51.17;17.90;;;5.00;99.90;;;;;;4952532;28;20212;-60
2022/01/18 10:33:11;;;;;;;45.23;18.13;;;5.10;99.90;;;;;;4951531;29;20299;-61
2022/01/18 10:36:09;;;;;;;50.17;18.23;;;5.10;99.90;;;;;;4952306;28;20180;-60
2022/01/18 10:38:35;;;;;;;52.40;18.47;;;5.10;99.90;;;;;;4952155;28;20637;-60
2022/01/18 10:41:34;;;;;;;48.77;18.40;;;5.30;99.90;;;;;;4952061;28;20176;-61
2022/01/18 10:44:13;;;;;;;49.93;17.73;;;5.20;99.90;;;;;;4951693;28;20190;-61
2022/01/18 10:46:44;;;;;;;51.37;18.90;;;5.30;99.90;;;;;;4952265;28;20317;-61
2022/01/18 10:49:10;;;;;;;51.90;17.97;;;5.30;99.90;;;;;;4952194;29;20196;-60
2022/01/18 10:51:40;;;;;;;67.13;18.97;;;5.30;99.90;;;;;;4951023;28;20196;-61
2022/01/18 10:54:09;;;;;;;46.10;18.27;;;5.40;99.90;;;;;;4945918;29;20217;-61
2022/01/18 10:56:49;;;;;;;50.03;17.60;;;5.50;99.90;;;;;;4931531;29;20185;-60
2022/01/18 10:59:25;;;;;;;44.83;17.97;;;5.50;99.90;;;;;;4931332;29;20264;-61
2022/01/18 11:02:15;;;;;;;53.07;18.80;;;5.50;99.90;;;;;;4932870;29;20256;-61
2022/01/18 11:04:49;;;;;;;49.13;17.50;;;5.60;99.90;;;;;;4933185;29;20177;-62
2022/01/18 11:07:19;;;;;;;49.27;17.27;;;5.70;99.90;;;;;;4933124;29;20178;-60
2022/01/18 11:09:45;;;;;;;51.27;17.47;;;5.80;99.90;;;;;;4932956;29;20668;-62
2022/01/18 11:12:11;;;;;;;50.43;18.30;;;5.90;99.90;;;;;;4932661;29;20177;-61
2022/01/18 11:14:45;;;;;;;49.53;19.10;;;6.00;99.90;;;;;;4932808;29;20185;-60
2022/01/18 11:17:21;;;;;;;48.27;18.70;;;6.10;99.90;;;;;;4951820;29;20215;-61
2022/01/18 11:19:49;;;;;;;41.47;16.40;;;6.20;99.90;;;;;;4932616;29;20656;-61
2022/01/18 11:22:16;;;;;;;50.03;17.07;;;6.40;99.90;;;;;;4932617;29;20810;-62
2022/01/18 11:24:43;;;;;;;42.93;17.57;;;6.50;99.90;;;;;;4932764;29;20204;-63
2022/01/18 11:27:14;;;;;;;44.33;17.20;;;6.70;99.90;;;;;;4932943;29;20174;-61
2022/01/18 11:29:46;;;;;;;44.10;16.27;;;7.10;99.90;;;;;;4915457;29;20543;-61
2022/01/18 11:32:13;;;;;;;34.73;15.00;;;7.20;99.90;;;;;;4956332;28;20721;-61
2022/01/18 11:34:55;;;;;;;46.10;16.23;;;7.00;99.90;;;;;;4933833;29;20221;-61
2022/01/18 11:37:32;;;;;;;43.45;17.60;;;7.40;99.90;;;;;;4918737;29;20852;-61
2022/01/18 11:40:16;;;;;;;37.07;16.17;;;7.40;99.90;;;;;;4936317;29;20203;-63
2022/01/18 11:42:55;;;;;;;35.03;15.00;;;7.30;99.90;;;;;;4938299;29;20193;-64
2022/01/18 11:45:37;;;;;;;37.17;14.57;;;7.40;99.90;;;;;;4932639;29;20243;-63
2022/01/18 11:48:17;;;;;;;38.87;14.87;;;7.50;99.90;;;;;;4951453;29;20192;-62
2022/01/18 11:51:06;;;;;;;38.00;15.00;;;7.50;99.90;;;;;;4950806;29;20204;-62
2022/01/18 11:53:43;;;;;;;41.07;15.30;;;7.60;99.90;;;;;;4939262;29;20240;-62
2022/01/18 11:56:31;;;;;;;43.57;15.73;;;7.50;99.90;;;;;;4953253;28;20238;-62
2022/01/18 11:59:13;;;;;;;36.00;15.40;;;7.90;99.90;;;;;;4955294;28;20206;-62
2022/01/18 12:01:50;;;;;;;36.80;15.53;;;8.70;99.90;;;;;;4955212;29;20180;-62
2022/01/18 12:04:42;;;;;;;35.77;15.63;;;8.80;99.90;;;;;;4955246;29;20184;-63
2022/01/18 12:07:32;;;;;;;35.30;16.30;;;8.90;99.90;;;;;;4955127;29;20287;-63
2022/01/18 12:09:58;;;;;;;35.17;15.90;;;9.50;99.90;;;;;;4954809;29;20250;-63
2022/01/18 12:12:42;;;;;;;36.80;14.80;;;10.70;99.90;;;;;;4937697;29;20176;-62
2022/01/18 12:15:21;;;;;;;30.37;15.50;;;9.90;99.90;;;;;;4954883;29;20177;-63
2022/01/18 12:17:57;;;;;;;40.60;16.10;;;11.20;99.90;;;;;;4954829;29;20184;-63
2022/01/18 12:20:32;;;;;;;33.07;15.67;;;11.90;99.90;;;;;;4955027;29;20303;-63
2022/01/18 12:23:20;;;;;;;32.80;15.10;;;12.00;99.90;;;;;;4950975;28;20172;-63
2022/01/18 12:26:26;;;;;;;40.63;18.20;;;11.40;99.90;;;;;;4974456;28;20184;-63
2022/01/18 12:34:33;;;;;;;33.78;16.17;;;11.10;99.90;;;;;;4954673;29;20172;-63
2022/01/18 12:37:08;;;;;;;35.80;16.33;;;12.70;99.90;;;;;;4954851;29;20181;-64
2022/01/18 12:39:58;;;;;;;34.67;15.57;;;12.80;99.90;;;;;;4954696;29;20176;-65
2022/01/18 12:44:58;;;;;;;34.97;16.08;;;15.30;99.90;;;;;;4954680;29;20581;-65
2022/01/18 12:47:25;;;;;;;38.08;17.60;;;15.00;99.90;;;;;;4954474;29;20235;-64
2022/01/18 12:49:54;;;;;;;40.35;20.77;;;13.30;99.90;;;;;;4953161;29;20220;-64
2022/01/18 12:52:21;;;;;;;38.92;17.92;;;13.10;99.90;;;;;;4954531;29;20561;-65
2022/01/18 12:54:48;;;;;;;33.00;15.70;;;12.90;99.90;;;;;;4953761;29;20268;-64
2022/01/18 12:57:21;;;;;;;42.97;15.98;;;12.90;99.90;;;;;;4952412;29;20164;-61
2022/01/18 13:00:00;;;;;;;32.88;14.63;;;13.20;99.90;;;;;;4969433;28;20188;-64
2022/01/18 13:02:27;;;;;;;33.42;15.07;;;14.00;99.90;;;;;;4954168;28;20230;-63
2022/01/18 13:04:57;;;;;;;29.08;14.38;;;14.10;99.90;;;;;;4971528;28;20171;-62
2022/01/18 13:07:24;;;;;;;35.13;16.17;;;12.70;99.90;;;;;;4970958;28;20194;-62
2022/01/18 13:10:08;;;;;;;30.85;15.00;;;12.20;99.90;;;;;;4971766;28;20262;-63
2022/01/18 13:12:43;;;;;;;38.20;15.55;;;12.00;99.90;;;;;;4973303;28;20180;-62
2022/01/18 13:15:10;;;;;;;34.22;15.52;;;11.60;99.90;;;;;;4973278;28;20403;-62
2022/01/18 13:23:24;;;;;;;33.30;15.07;;;10.50;99.90;;;;;;4953896;28;20251;-63
2022/01/18 13:25:57;;;;;;;38.67;15.93;;;10.20;99.90;;;;;;4953067;28;20180;-63
2022/01/18 13:28:36;;;;;;;31.83;15.37;;;10.20;99.90;;;;;;4936244;29;20183;-64
2022/01/18 13:31:15;;;;;;;41.17;16.00;;;10.10;99.90;;;;;;4951148;28;20208;-63
2022/01/18 13:33:59;;;;;;;39.70;16.40;;;10.00;99.90;;;;;;4953355;29;20219;-70
2022/01/18 13:36:28;;;;;;;31.93;14.00;;;9.90;99.90;;;;;;4953323;29;20188;-67
2022/01/18 13:38:54;;;;;;;37.67;15.47;;;9.80;99.90;;;;;;4953127;28;20284;-67
2022/01/18 13:41:20;;;;;;;38.60;15.20;;;9.90;99.90;;;;;;4953399;29;20180;-62
2022/01/18 13:43:47;;;;;;;41.17;16.37;;;9.70;99.90;;;;;;4953301;29;20370;-59
2022/01/18 13:46:26;;;;;;;36.17;15.43;;;10.00;99.90;;;;;;4953228;29;20279;-61
2022/01/18 13:49:11;;;;;;;32.83;14.60;;;10.80;99.90;;;;;;4953034;29;20263;-59
2022/01/18 13:51:37;;;;;;;36.13;14.97;;;10.80;99.90;;;;;;4953301;29;20284;-59
2022/01/18 13:54:06;;;;;;;38.63;14.73;;;10.70;99.90;;;;;;4953213;29;20282;-59
2022/01/18 13:56:32;;;;;;;36.77;14.33;;;10.50;99.90;;;;;;4953218;29;20180;-59
2022/01/18 13:59:04;;;;;;;29.37;14.37;;;10.30;99.90;;;;;;4952927;28;20173;-58
2022/01/18 14:01:35;;;;;;;30.63;14.47;;;10.10;99.90;;;;;;4953122;29;20177;-62
2022/01/18 14:04:15;;;;;;;36.63;13.80;;;10.00;99.90;;;;;;4953048;28;20164;-59
2022/01/18 14:06:42;;;;;;;35.60;14.77;;;10.00;99.90;;;;;;4933850;29;20181;-58
2022/01/18 14:09:10;;;;;;;40.67;13.90;;;9.90;99.90;;;;;;4947669;28;20199;-59
2022/01/18 14:11:38;;;;;;;32.63;13.03;;;9.80;99.90;;;;;;4952898;29;20275;-59
2022/01/18 14:14:31;;;;;;;36.27;13.40;;;9.70;99.90;;;;;;4952843;29;20181;-59